Time;durP1;ratioP1;P1;durP2;ratioP2;P2;SDS_P1;SDS_P2;PMS_P1;PMS_P2;Temp;Humidity;BMP_temperature;BMP_pressure;BME280_temperature;BME280_humidity;BME280_pressure;Samples;Min_cycle;Max_cycle;Signal;HPM_P1;HPM_P2
2022/08/04 00:01:50;;;;;;;4.07;2.10;;;;;;;21.12;58.06;92854.88;5031770;28;20033;-74
2022/08/04 00:04:35;;;;;;;6.75;2.67;;;;;;;21.12;58.55;92849.53;5031619;28;20043;-74
2022/08/04 00:07:21;;;;;;;5.30;2.40;;;;;;;21.09;58.77;92844.91;5031061;28;20075;-74
2022/08/04 00:09:54;;;;;;;4.82;2.38;;;;;;;21.07;58.81;92842.59;5013847;28;20120;-74
2022/08/04 00:12:23;;;;;;;4.40;2.47;;;;;;;21.09;59.15;92843.03;5031582;28;20061;-74
2022/08/04 00:14:52;;;;;;;6.00;2.33;;;;;;;21.11;59.16;92853.34;5013777;28;20067;-74
2022/08/04 00:17:22;;;;;;;7.88;2.20;;;;;;;21.10;59.43;92841.91;5031365;28;20132;-74
2022/08/04 00:19:54;;;;;;;4.68;2.40;;;;;;;21.10;59.01;92844.59;5031352;28;20044;-74
2022/08/04 00:22:25;;;;;;;6.05;2.35;;;;;;;21.11;59.47;92840.03;5031343;28;20080;-73
2022/08/04 00:24:52;;;;;;;4.38;2.30;;;;;;;21.11;59.64;92834.69;5013734;28;20037;-74
2022/08/04 00:27:18;;;;;;;6.05;2.00;;;;;;;21.10;59.95;92841.16;5013688;28;20040;-74
2022/08/04 00:29:45;;;;;;;4.78;2.33;;;;;;;21.09;59.99;92839.59;5013518;28;20041;-74
2022/08/04 00:32:11;;;;;;;5.65;2.50;;;;;;;21.09;59.81;92836.94;5013566;28;20550;-74
2022/08/04 00:34:38;;;;;;;4.68;2.30;;;;;;;21.07;59.74;92842.59;5031824;28;20361;-73
2022/08/04 00:37:06;;;;;;;4.10;2.60;;;;;;;21.09;60.02;92845.69;5031103;28;20037;-74
2022/08/04 00:39:33;;;;;;;3.50;2.40;;;;;;;21.08;60.23;92840.72;5013542;28;20046;-74
2022/08/04 00:42:16;;;;;;;4.00;2.10;;;;;;;21.08;59.96;92854.03;5031112;28;20025;-74
2022/08/04 00:44:53;;;;;;;4.95;2.55;;;;;;;21.06;59.95;92848.28;5030891;28;20042;-74
2022/08/04 00:47:28;;;;;;;3.95;2.40;;;;;;;21.03;60.24;92847.06;5013373;28;20120;-74
2022/08/04 00:50:08;;;;;;;5.10;2.40;;;;;;;21.04;60.03;92845.19;5030979;28;20055;-74
2022/08/04 00:52:33;;;;;;;4.47;2.40;;;;;;;21.03;60.16;92840.97;5031113;28;20045;-74
2022/08/04 00:55:14;;;;;;;6.05;2.40;;;;;;;21.02;59.98;92842.09;5030823;28;20045;-74
2022/08/04 00:57:45;;;;;;;5.03;2.25;;;;;;;20.97;60.33;92843.88;5031023;28;20025;-74
2022/08/04 01:00:13;;;;;;;4.13;2.50;;;;;;;20.97;60.17;92851.84;5031024;28;20072;-74
2022/08/04 01:03:03;;;;;;;4.38;2.33;;;;;;;20.96;60.24;92850.31;4996860;28;20108;-74
2022/08/04 01:06:16;;;;;;;4.70;2.50;;;;;;;20.95;60.28;92848.75;5030751;28;20044;-74
2022/08/04 01:08:49;;;;;;;6.30;2.38;;;;;;;20.93;60.19;92848.31;4934467;29;20463;-74
2022/08/04 01:11:38;;;;;;;6.13;2.47;;;;;;;20.93;60.66;92847.56;5003460;28;20042;-74
2022/08/04 01:14:04;;;;;;;5.50;2.40;;;;;;;20.90;60.46;92843.69;5031175;28;20238;-74
2022/08/04 01:16:30;;;;;;;7.38;2.50;;;;;;;20.88;60.63;92845.94;5013002;28;20041;-73
2022/08/04 01:19:10;;;;;;;4.55;2.47;;;;;;;20.85;60.80;92846.63;5015777;28;20048;-74
2022/08/04 01:22:07;;;;;;;4.18;2.28;;;;;;;20.83;60.72;92842.72;5034676;28;20034;-74
2022/08/04 01:24:42;;;;;;;5.65;2.47;;;;;;;20.82;60.68;92838.53;5034606;28;20045;-74
2022/08/04 01:27:07;;;;;;;4.50;2.35;;;;;;;20.79;60.56;92837.34;5034412;28;20032;-74
2022/08/04 01:29:44;;;;;;;5.30;2.28;;;;;;;20.79;60.69;92843.41;5034530;28;20025;-73
2022/08/04 01:32:24;;;;;;;3.67;2.10;;;;;;;20.78;60.41;92841.88;5034585;28;20087;-74
2022/08/04 01:35:01;;;;;;;3.55;2.15;;;;;;;20.78;60.33;92843.75;5016729;28;20491;-74
2022/08/04 01:37:53;;;;;;;3.80;2.22;;;;;;;20.74;60.46;92842.91;5016856;28;20041;-74
2022/08/04 01:40:20;;;;;;;4.22;2.33;;;;;;;20.72;60.15;92842.47;5034338;28;20507;-74
2022/08/04 01:42:51;;;;;;;4.45;2.10;;;;;;;20.71;59.94;92839.03;5034064;28;20074;-74
2022/08/04 01:45:16;;;;;;;6.15;2.17;;;;;;;20.72;60.07;92842.47;5034258;28;20034;-74
2022/08/04 01:47:51;;;;;;;5.88;2.50;;;;;;;20.70;60.27;92832.16;5034884;28;20448;-74
2022/08/04 01:50:16;;;;;;;5.50;2.15;;;;;;;20.68;60.32;92829.06;5016826;28;20088;-74
2022/08/04 01:52:44;;;;;;;5.50;2.00;;;;;;;20.67;60.01;92830.19;5034004;28;20061;-74
2022/08/04 01:55:11;;;;;;;6.05;2.20;;;;;;;20.67;59.81;92837.38;5034072;28;20077;-74
2022/08/04 01:57:41;;;;;;;3.92;2.25;;;;;;;20.66;59.89;92828.63;5000414;28;20406;-75
2022/08/04 02:00:08;;;;;;;3.67;2.00;;;;;;;20.63;59.78;92826.66;5034045;28;20543;-74
2022/08/04 02:02:36;;;;;;;9.43;2.40;;;;;;;20.62;59.64;92827.00;5016204;28;20549;-74
2022/08/04 02:05:02;;;;;;;7.22;2.30;;;;;;;20.61;60.03;92825.47;5034399;28;20033;-74
2022/08/04 02:08:05;;;;;;;4.13;2.13;;;;;;;20.59;60.27;92826.56;5033910;28;20045;-74
2022/08/04 02:10:57;;;;;;;5.97;2.30;;;;;;;20.59;60.32;92825.78;5016191;28;20033;-73
2022/08/04 02:13:30;;;;;;;3.40;2.10;;;;;;;20.58;60.33;92824.25;5016086;28;20542;-73
2022/08/04 02:16:03;;;;;;;3.92;2.30;;;;;;;20.56;60.22;92821.13;5015963;28;20045;-75
2022/08/04 02:18:48;;;;;;;4.68;2.20;;;;;;;20.54;60.15;92824.13;5033651;28;20068;-73
2022/08/04 02:21:17;;;;;;;4.47;2.20;;;;;;;20.53;60.22;92827.13;5015911;28;20123;-74
2022/08/04 02:23:48;;;;;;;4.40;2.30;;;;;;;20.52;60.23;92828.25;5033421;28;20502;-74
2022/08/04 02:26:19;;;;;;;4.07;2.20;;;;;;;20.49;60.64;92818.25;5033506;28;20113;-74
2022/08/04 02:29:02;;;;;;;6.72;2.05;;;;;;;20.46;60.70;92830.34;5033323;28;20033;-73
2022/08/04 02:31:30;;;;;;;4.75;2.78;;;;;;;20.44;60.88;92821.94;5033502;28;20108;-73
2022/08/04 02:34:24;;;;;;;4.03;2.47;;;;;;;20.42;61.06;92818.84;5033335;28;20068;-73
2022/08/04 02:36:51;;;;;;;3.65;2.13;;;;;;;20.41;60.87;92825.28;5033232;28;20068;-73
2022/08/04 02:39:21;;;;;;;3.92;2.30;;;;;;;20.42;60.85;92815.41;5015574;28;20108;-74
2022/08/04 02:41:49;;;;;;;4.53;2.10;;;;;;;20.38;61.16;92818.00;4999207;28;20378;-74
2022/08/04 02:44:21;;;;;;;5.90;2.50;;;;;;;20.40;61.06;92821.09;5033110;28;20036;-74
2022/08/04 02:46:52;;;;;;;3.58;2.13;;;;;;;20.39;60.77;92814.97;5015484;28;20077;-74
2022/08/04 02:49:20;;;;;;;3.97;2.20;;;;;;;20.39;60.62;92814.22;5033593;28;20026;-74
2022/08/04 02:51:50;;;;;;;3.95;2.10;;;;;;;20.39;60.89;92814.22;5015384;28;20593;-74
2022/08/04 02:54:18;;;;;;;4.85;2.15;;;;;;;20.38;60.94;92824.09;5015130;28;20085;-73
2022/08/04 02:56:45;;;;;;;4.07;2.35;;;;;;;20.37;60.96;92816.44;5015205;28;20421;-73
2022/08/04 02:59:12;;;;;;;7.65;2.25;;;;;;;20.36;60.76;92821.00;5032920;28;20033;-74
2022/08/04 03:01:39;;;;;;;6.30;2.10;;;;;;;20.36;60.85;92817.56;5015078;28;20095;-74
2022/08/04 03:04:17;;;;;;;4.20;2.25;;;;;;;20.36;60.64;92815.66;5032675;28;20037;-74
2022/08/04 03:07:08;;;;;;;4.70;2.30;;;;;;;20.36;60.55;92821.00;5015017;28;20037;-75
2022/08/04 03:09:55;;;;;;;3.53;2.33;;;;;;;20.36;60.77;92814.91;5032735;28;20175;-74
2022/08/04 03:12:54;;;;;;;3.60;2.30;;;;;;;20.34;60.78;92831.19;5032449;28;20115;-74
2022/08/04 03:15:45;;;;;;;6.18;2.45;;;;;;;20.32;60.93;92820.13;5032507;28;20040;-73
2022/08/04 03:18:36;;;;;;;4.68;2.30;;;;;;;20.31;60.97;92821.25;5014373;28;20045;-74
2022/08/04 03:21:08;;;;;;;6.60;2.08;;;;;;;20.28;60.81;92819.25;5032461;28;20092;-73
2022/08/04 03:23:39;;;;;;;4.07;2.17;;;;;;;20.27;60.71;92819.59;4998401;28;20114;-74
2022/08/04 03:26:28;;;;;;;6.90;2.20;;;;;;;20.26;60.56;92823.34;4998540;28;20044;-74
2022/08/04 03:29:08;;;;;;;4.60;2.10;;;;;;;20.25;60.51;92813.84;5016904;28;20049;-73
2022/08/04 03:31:59;;;;;;;4.30;2.35;;;;;;;20.22;60.95;92812.63;5032272;28;20041;-73
2022/08/04 03:35:01;;;;;;;6.10;2.35;;;;;;;20.19;61.19;92815.94;5032209;28;20056;-73
2022/08/04 03:37:35;;;;;;;4.38;2.20;;;;;;;20.14;61.22;92806.34;5032119;28;20041;-74
2022/08/04 03:40:23;;;;;;;4.20;2.22;;;;;;;20.12;61.12;92816.53;5013959;28;20049;-74
2022/08/04 03:42:57;;;;;;;4.93;2.33;;;;;;;20.11;61.13;92803.59;5031851;28;20033;-74
2022/08/04 03:45:34;;;;;;;6.70;2.35;;;;;;;20.09;61.46;92800.50;5013562;28;20045;-74
2022/08/04 03:48:11;;;;;;;6.00;2.30;;;;;;;20.07;61.30;92806.13;5031993;28;20430;-74
2022/08/04 03:53:51;;;;;;;7.07;2.40;;;;;;;20.05;61.64;92805.69;5013739;28;20080;-74
2022/08/04 03:56:58;;;;;;;5.57;2.40;;;;;;;20.03;61.96;92807.91;5031597;28;20052;-74
2022/08/04 03:59:26;;;;;;;4.57;2.20;;;;;;;20.02;61.98;92806.38;4987751;28;20044;-74
2022/08/04 04:02:41;;;;;;;6.18;2.53;;;;;;;20.01;62.17;92809.38;5031770;28;20029;-74
2022/08/04 04:05:22;;;;;;;3.88;2.40;;;;;;;19.99;62.04;92808.94;5029225;28;20104;-74
2022/08/04 04:07:57;;;;;;;5.95;2.17;;;;;;;19.98;61.96;92808.16;5031583;28;20109;-73
2022/08/04 04:10:36;;;;;;;4.15;2.40;;;;;;;19.97;61.97;92809.25;5031541;28;20151;-73
2022/08/04 04:13:13;;;;;;;7.22;2.58;;;;;;;19.98;62.37;92810.81;5031554;28;20116;-74
2022/08/04 04:16:00;;;;;;;6.38;2.45;;;;;;;19.97;62.78;92806.59;5031354;28;20030;-74
2022/08/04 04:19:16;;;;;;;7.72;2.83;;;;;;;19.98;62.64;92807.41;5031580;28;20495;-73
2022/08/04 04:22:30;;;;;;;6.45;2.60;;;;;;;19.97;62.58;92814.56;5031789;28;20048;-74
2022/08/04 04:25:29;;;;;;;5.65;2.90;;;;;;;19.97;63.46;92811.91;5009988;28;20464;-74
2022/08/04 04:28:16;;;;;;;6.15;2.97;;;;;;;19.97;63.61;92811.91;5013780;28;20076;-74
2022/08/04 04:31:16;;;;;;;3.85;2.47;;;;;;;19.95;63.42;92822.13;5031585;28;20118;-74
2022/08/04 04:34:12;;;;;;;7.15;2.50;;;;;;;19.95;63.48;92819.47;4997001;28;20033;-74
2022/08/04 04:36:55;;;;;;;5.95;2.50;;;;;;;19.98;63.25;92821.44;5031064;28;20033;-74
2022/08/04 04:39:44;;;;;;;4.50;2.50;;;;;;;20.03;63.23;92823.09;5013450;28;20466;-73
2022/08/04 04:42:38;;;;;;;6.22;2.50;;;;;;;20.06;63.53;92822.41;4985031;28;20136;-73
2022/08/04 04:45:25;;;;;;;5.70;2.40;;;;;;;20.08;63.64;92826.28;5013323;28;20029;-75
2022/08/04 04:47:57;;;;;;;4.15;2.40;;;;;;;20.12;63.84;92824.50;5013373;28;20033;-75
2022/08/04 04:50:36;;;;;;;8.55;2.67;;;;;;;20.15;63.63;92823.84;5013190;28;20030;-75
2022/08/04 04:53:15;;;;;;;5.28;2.40;;;;;;;20.18;63.24;92822.38;5013132;28;20572;-75
2022/08/04 04:55:50;;;;;;;6.95;2.38;;;;;;;20.21;63.65;92831.56;4996629;28;20506;-75
2022/08/04 04:58:18;;;;;;;4.90;2.50;;;;;;;20.24;63.70;92833.53;5029974;28;20116;-74
2022/08/04 05:01:23;;;;;;;8.00;2.10;;;;;;;20.29;63.38;92836.75;5035069;28;20052;-78
2022/08/04 05:04:16;;;;;;;6.88;2.60;;;;;;;20.32;63.66;92829.97;5029188;28;20079;-77
2022/08/04 05:07:19;;;;;;;4.50;2.35;;;;;;;20.36;63.81;92831.63;5047378;28;20064;-80
2022/08/04 05:09:51;;;;;;;5.65;2.55;;;;;;;20.40;63.74;92837.03;5048051;28;20060;-76
2022/08/04 05:12:34;;;;;;;5.38;2.38;;;;;;;20.47;64.07;92842.56;5035580;28;20082;-76
2022/08/04 05:15:02;;;;;;;4.85;2.88;;;;;;;20.51;64.27;92845.28;5044623;28;20025;-77
2022/08/04 05:17:37;;;;;;;3.97;2.72;;;;;;;20.57;64.64;92836.00;5046733;28;20279;-76
2022/08/04 05:20:13;;;;;;;4.28;2.63;;;;;;;20.61;64.45;92836.88;5028224;28;20390;-76
2022/08/04 05:22:51;;;;;;;4.35;2.50;;;;;;;20.65;64.91;92848.38;5038344;28;20021;-76
2022/08/04 05:25:31;;;;;;;6.38;2.60;;;;;;;20.70;64.46;92839.38;5040727;28;20037;-76
2022/08/04 05:28:05;;;;;;;3.90;2.45;;;;;;;20.75;64.24;92841.78;5041970;28;20041;-79
2022/08/04 05:30:35;;;;;;;11.32;2.50;;;;;;;20.82;64.30;92844.63;5050494;28;20100;-77
2022/08/04 05:33:06;;;;;;;4.63;2.50;;;;;;;20.89;64.09;92847.47;5050451;28;20037;-77
2022/08/04 05:35:42;;;;;;;4.95;2.40;;;;;;;20.95;64.15;92846.09;5028504;28;20504;-74
2022/08/04 05:38:10;;;;;;;6.50;2.67;;;;;;;21.03;64.27;92846.28;5046052;28;20479;-76
2022/08/04 05:40:38;;;;;;;4.32;2.42;;;;;;;21.10;64.28;92843.81;5048169;28;20075;-76
2022/08/04 05:43:05;;;;;;;5.38;2.55;;;;;;;21.13;65.44;92851.09;5032229;28;20053;-76
2022/08/04 05:45:34;;;;;;;4.68;2.85;;;;;;;21.20;65.17;92852.03;5038206;28;20044;-75
2022/08/04 05:48:05;;;;;;;4.25;2.60;;;;;;;21.22;65.57;92851.72;5033315;28;20068;-75
2022/08/04 05:50:32;;;;;;;8.48;3.40;;;;;;;21.30;65.49;92855.31;5031652;28;20047;-75
2022/08/04 05:52:58;;;;;;;9.00;2.60;;;;;;;21.36;65.30;92853.94;5031545;28;20067;-75
2022/08/04 05:55:26;;;;;;;8.60;2.40;;;;;;;21.44;65.79;92844.28;5032095;28;20506;-75
2022/08/04 05:57:53;;;;;;;10.40;2.80;;;;;;;21.51;65.31;92849.75;5031265;28;20074;-75
2022/08/04 06:00:19;;;;;;;4.15;2.42;;;;;;;21.58;65.90;92840.03;5048005;28;20391;-75
2022/08/04 06:02:48;;;;;;;7.80;2.80;;;;;;;21.69;65.70;92847.50;5049073;28;20078;-75
2022/08/04 06:05:17;;;;;;;6.55;2.60;;;;;;;21.76;65.90;92845.75;5034722;28;20040;-76
2022/08/04 06:07:43;;;;;;;4.70;2.60;;;;;;;21.98;65.22;92838.25;5034351;28;20061;-75
2022/08/04 06:10:10;;;;;;;6.43;2.97;;;;;;;22.16;64.86;92847.38;5033755;28;20052;-76
2022/08/04 06:12:41;;;;;;;9.90;2.90;;;;;;;22.66;63.24;92839.63;5052742;28;20025;-76
2022/08/04 06:15:12;;;;;;;4.70;2.70;;;;;;;22.73;62.38;92842.41;5034201;28;20147;-77
2022/08/04 06:17:54;;;;;;;5.03;2.97;;;;;;;23.59;60.59;92837.75;5040906;28;20048;-77
2022/08/04 06:20:25;;;;;;;5.03;2.80;;;;;;;23.83;60.01;92837.38;5049545;28;20107;-77
2022/08/04 06:22:56;;;;;;;5.77;2.90;;;;;;;24.71;57.76;92844.25;5041904;28;20044;-77
2022/08/04 06:25:26;;;;;;;10.52;2.58;;;;;;;25.39;55.46;92840.72;5015837;28;20128;-77
2022/08/04 06:27:54;;;;;;;6.75;2.53;;;;;;;26.21;54.04;92845.88;5052695;28;20041;-76
2022/08/04 06:30:24;;;;;;;6.75;2.50;;;;;;;26.87;51.42;92837.75;5023794;28;20399;-76
2022/08/04 06:32:55;;;;;;;8.88;2.70;;;;;;;27.40;49.39;92847.81;5049402;28;20400;-77
2022/08/04 06:35:23;;;;;;;5.47;2.50;;;;;;;28.03;46.91;92840.13;5052580;28;20041;-77
2022/08/04 06:37:50;;;;;;;4.57;2.60;;;;;;;28.63;45.53;92843.84;5032772;28;20048;-77
2022/08/04 06:40:19;;;;;;;4.45;2.80;;;;;;;29.20;44.16;92843.56;5050178;28;20029;-77
2022/08/04 06:42:47;;;;;;;11.10;2.63;;;;;;;29.73;43.45;92840.91;5034268;28;20087;-77
2022/08/04 06:45:13;;;;;;;4.00;2.53;;;;;;;30.11;42.29;92849.03;5048609;28;20044;-78
2022/08/04 06:47:41;;;;;;;4.60;2.60;;;;;;;30.33;40.96;92855.00;5049207;28;20514;-77
2022/08/04 06:50:08;;;;;;;6.05;2.70;;;;;;;30.34;40.14;92851.16;5024384;28;20487;-78
2022/08/04 06:52:34;;;;;;;7.25;2.80;;;;;;;30.22;40.08;92855.88;5043266;28;20032;-78
2022/08/04 06:55:02;;;;;;;5.80;3.00;;;;;;;30.28;39.88;92854.28;5023797;28;20053;-78
2022/08/04 06:57:30;;;;;;;7.93;3.00;;;;;;;30.35;39.45;92853.44;5029014;28;20039;-78
2022/08/04 07:00:10;;;;;;;8.20;2.83;;;;;;;30.45;38.65;92847.16;5016686;28;20017;-76
2022/08/04 07:02:44;;;;;;;7.05;3.50;;;;;;;29.67;43.57;92860.16;5048995;28;20048;-77
2022/08/04 07:05:11;;;;;;;6.22;3.50;;;;;;;29.19;44.50;92852.81;5034301;28;20048;-76
2022/08/04 07:07:38;;;;;;;6.93;3.58;;;;;;;28.75;45.38;92856.09;5032643;28;20025;-76
2022/08/04 07:10:05;;;;;;;8.35;3.47;;;;;;;28.14;46.71;92851.63;5030310;28;20083;-76
2022/08/04 07:12:32;;;;;;;6.10;3.40;;;;;;;27.37;49.43;92853.97;5049090;28;20437;-76
2022/08/04 07:14:58;;;;;;;9.52;4.32;;;;;;;27.33;49.26;92858.56;5032917;28;20051;-76
2022/08/04 07:17:24;;;;;;;9.20;3.85;;;;;;;26.91;50.72;92851.97;5045833;28;20498;-77
2022/08/04 07:19:51;;;;;;;5.80;3.80;;;;;;;26.89;50.00;92856.94;5032118;28;20349;-76
2022/08/04 07:22:18;;;;;;;8.25;3.90;;;;;;;26.61;51.67;92841.50;5046760;28;20029;-76
2022/08/04 07:24:43;;;;;;;8.35;3.90;;;;;;;26.70;52.35;92850.72;5040399;28;20041;-76
2022/08/04 07:27:09;;;;;;;8.38;3.90;;;;;;;26.71;51.10;92841.53;5049745;28;20045;-77
2022/08/04 07:29:35;;;;;;;7.85;3.97;;;;;;;26.77;51.53;92850.78;5044501;28;20025;-77
2022/08/04 07:32:02;;;;;;;8.40;3.70;;;;;;;26.77;51.54;92849.97;5047902;28;20041;-77
2022/08/04 07:34:29;;;;;;;8.23;4.13;;;;;;;26.73;51.96;92849.97;5033260;28;20024;-77
2022/08/04 07:36:57;;;;;;;7.97;3.97;;;;;;;26.78;51.25;92851.53;5050247;28;20029;-78
2022/08/04 07:39:30;;;;;;;5.93;3.83;;;;;;;26.88;50.21;92845.41;5029860;28;20032;-77
2022/08/04 07:42:00;;;;;;;9.98;4.53;;;;;;;26.81;51.55;92844.63;5044313;28;20044;-77
2022/08/04 07:44:26;;;;;;;8.73;3.65;;;;;;;27.02;51.34;92844.69;5051593;28;20086;-77
2022/08/04 07:46:52;;;;;;;12.32;3.90;;;;;;;27.06;50.59;92845.44;5050685;28;20437;-77
2022/08/04 07:49:19;;;;;;;8.20;4.07;;;;;;;27.19;50.26;92848.53;5032122;28;20486;-78
2022/08/04 07:51:45;;;;;;;7.15;4.18;;;;;;;27.29;49.53;92857.78;5033725;28;20076;-77
2022/08/04 07:54:12;;;;;;;9.45;4.05;;;;;;;27.33;49.96;92853.19;5033752;28;20084;-77
2022/08/04 07:56:40;;;;;;;8.43;4.13;;;;;;;27.15;49.34;92853.91;5034423;28;20451;-77
2022/08/04 07:59:06;;;;;;;6.13;3.78;;;;;;;27.21;49.31;92854.34;5025915;28;20495;-78
2022/08/04 08:01:35;;;;;;;9.15;4.55;;;;;;;27.28;48.44;92856.28;5045276;28;20116;-78
2022/08/04 08:04:03;;;;;;;10.98;4.30;;;;;;;27.06;49.09;92850.06;5029471;28;20033;-78
2022/08/04 08:06:29;;;;;;;16.77;4.13;;;;;;;27.14;49.74;92857.75;5052918;28;20079;-78
2022/08/04 08:08:55;;;;;;;8.68;4.15;;;;;;;27.19;48.82;92853.91;5052278;28;20041;-78
2022/08/04 08:11:21;;;;;;;8.95;3.90;;;;;;;27.10;47.80;92846.22;5022444;28;20041;-77
2022/08/04 08:13:47;;;;;;;14.90;4.60;;;;;;;27.58;47.12;92850.53;5049827;28;20029;-76
2022/08/04 08:16:13;;;;;;;5.78;4.10;;;;;;;27.72;47.23;92847.84;5039837;28;20072;-77
2022/08/04 08:18:39;;;;;;;8.45;4.22;;;;;;;27.46;48.66;92851.66;5031710;28;20111;-77
2022/08/04 08:21:06;;;;;;;8.48;4.20;;;;;;;27.39;47.97;92851.69;5033903;28;20104;-78
2022/08/04 08:23:34;;;;;;;7.55;4.20;;;;;;;27.48;48.24;92838.63;5051577;28;20032;-78
2022/08/04 08:26:00;;;;;;;8.82;4.30;;;;;;;27.09;47.57;92855.44;5052330;28;20139;-78
2022/08/04 08:28:26;;;;;;;6.82;4.20;;;;;;;27.13;49.66;92855.44;5034567;28;20051;-78
2022/08/04 08:30:52;;;;;;;13.50;4.55;;;;;;;27.20;48.85;92853.56;5043828;28;20033;-78
2022/08/04 08:33:20;;;;;;;8.20;4.53;;;;;;;27.20;49.38;92856.25;5019372;28;20068;-78
2022/08/04 08:35:53;;;;;;;6.13;4.20;;;;;;;27.17;49.53;92850.84;5033875;28;20029;-78
2022/08/04 08:38:46;;;;;;;6.15;4.28;;;;;;;27.14;48.40;92855.06;5024007;28;20574;-75
2022/08/04 08:41:42;;;;;;;9.05;4.20;;;;;;;27.23;49.04;92849.34;5007368;28;20049;-76
2022/08/04 08:44:29;;;;;;;7.95;4.50;;;;;;;27.43;48.71;92851.69;5021427;28;20052;-77
2022/08/04 08:47:13;;;;;;;10.80;4.50;;;;;;;27.19;48.08;92852.00;5047366;28;20395;-77
2022/08/04 08:49:56;;;;;;;6.93;4.30;;;;;;;27.38;47.38;92847.44;5014267;28;20029;-78
2022/08/04 08:52:28;;;;;;;8.88;4.70;;;;;;;27.40;47.95;92853.19;5031007;28;20486;-77
2022/08/04 08:55:25;;;;;;;9.18;4.35;;;;;;;27.41;46.38;92844.75;5045249;28;20036;-77
2022/08/04 08:58:06;;;;;;;8.13;4.70;;;;;;;26.97;47.37;92847.72;5041191;28;20037;-77
2022/08/04 09:00:37;;;;;;;13.00;4.85;;;;;;;26.65;47.70;92853.03;5049884;28;20029;-77
2022/08/04 09:03:26;;;;;;;9.07;4.90;;;;;;;26.45;47.24;92853.28;5047337;28;20029;-77
2022/08/04 09:06:04;;;;;;;9.90;4.80;;;;;;;26.53;49.17;92840.69;5050977;28;20095;-77
2022/08/04 09:08:54;;;;;;;11.35;4.40;;;;;;;26.79;49.40;92840.41;5033518;28;20041;-77
2022/08/04 09:11:24;;;;;;;8.27;4.70;;;;;;;26.95;46.70;92842.75;5050242;28;20029;-79
2022/08/04 09:13:56;;;;;;;8.30;5.07;;;;;;;27.18;46.71;92845.09;5029759;28;20037;-77
2022/08/04 09:16:35;;;;;;;;;;;;;;;27.44;47.13;92839.78;5046272;28;20041;-77
2022/08/04 09:19:09;;;;;;;6.80;4.40;;;;;;;27.54;46.59;92850.53;5033984;28;19916;-77
2022/08/04 09:21:44;;;;;;;7.18;4.47;;;;;;;27.72;46.86;92837.09;5036842;28;20426;-77
2022/08/04 09:24:24;;;;;;;7.88;4.63;;;;;;;27.99;45.66;92837.47;5049248;28;20359;-77
2022/08/04 09:27:08;;;;;;;7.97;4.60;;;;;;;28.28;45.33;92837.41;5051681;28;20262;-77
2022/08/04 09:29:48;;;;;;;9.88;4.25;;;;;;;28.23;44.93;92837.78;5052724;28;20021;-77
2022/08/04 09:32:31;;;;;;;9.10;4.50;;;;;;;28.11;44.94;92836.28;5049756;28;20092;-77
2022/08/04 09:35:22;;;;;;;6.05;4.25;;;;;;;27.74;44.87;92840.16;5034465;28;20354;-77
2022/08/04 09:38:12;;;;;;;8.60;4.65;;;;;;;27.62;45.03;92843.97;5050022;28;20040;-77
2022/08/04 09:41:10;;;;;;;7.05;4.40;;;;;;;27.73;44.79;92843.22;5035686;28;20107;-76
2022/08/04 09:43:43;;;;;;;14.50;5.18;;;;;;;27.60;44.46;92840.16;5043886;28;20060;-76
2022/08/04 09:46:31;;;;;;;9.10;4.78;;;;;;;27.81;44.55;92839.38;5053326;28;20089;-78
2022/08/04 09:49:00;;;;;;;7.38;4.65;;;;;;;27.92;44.64;92834.78;5040033;28;20423;-75
2022/08/04 09:51:38;;;;;;;7.78;4.43;;;;;;;27.81;44.57;92828.63;5032952;28;20499;-78
2022/08/04 09:54:15;;;;;;;11.32;4.35;;;;;;;28.21;45.04;92824.72;5055494;28;20741;-77
2022/08/04 09:56:56;;;;;;;7.80;4.55;;;;;;;27.89;43.90;92824.78;5050572;28;20038;-78
2022/08/04 09:59:29;;;;;;;6.28;4.32;;;;;;;28.11;44.48;92828.22;5035748;28;20080;-76
2022/08/04 10:02:01;;;;;;;6.82;4.45;;;;;;;28.06;43.47;92823.22;5029665;28;20128;-77
2022/08/04 10:04:30;;;;;;;8.15;4.22;;;;;;;28.48;44.33;92821.56;5036142;28;20032;-77
2022/08/04 10:07:14;;;;;;;8.98;4.05;;;;;;;28.62;44.02;92818.06;5036924;28;20025;-77
2022/08/04 10:10:06;;;;;;;8.70;4.15;;;;;;;28.60;43.17;92813.06;5054416;28;20036;-79
2022/08/04 10:12:39;;;;;;;8.25;4.40;;;;;;;28.56;42.18;92806.16;5003025;28;20127;-79
2022/08/04 10:15:26;;;;;;;7.30;4.47;;;;;;;28.68;43.36;92799.56;5056683;28;20033;-77
2022/08/04 10:18:23;;;;;;;8.23;4.30;;;;;;;28.73;42.15;92799.16;5033732;28;20072;-79
2022/08/04 10:20:49;;;;;;;8.20;4.40;;;;;;;28.73;42.85;92794.56;4951034;28;20053;-78
2022/08/04 10:23:30;;;;;;;6.13;4.32;;;;;;;28.77;41.55;92800.66;5053753;28;20379;-77
2022/08/04 10:26:40;;;;;;;11.55;4.22;;;;;;;28.63;41.52;92801.50;5034384;28;20465;-77
2022/08/04 10:29:13;;;;;;;7.32;4.03;;;;;;;28.91;41.88;92797.16;5023242;28;20053;-76
2022/08/04 10:31:45;;;;;;;8.40;4.40;;;;;;;28.66;41.42;92794.56;5018615;28;20045;-76
2022/08/04 10:34:20;;;;;;;5.57;4.28;;;;;;;28.58;41.10;92793.09;5024772;28;20033;-76
2022/08/04 10:37:09;;;;;;;7.80;3.90;;;;;;;29.01;40.67;92798.22;5044006;28;20049;-77
2022/08/04 10:42:58;;;;;;;6.78;4.05;;;;;;;28.92;40.37;92789.81;5052449;28;20037;-76
2022/08/04 10:45:30;;;;;;;7.70;4.05;;;;;;;29.02;40.03;92786.28;5052600;28;20083;-76
2022/08/04 10:48:06;;;;;;;8.43;4.15;;;;;;;29.16;40.08;92783.53;5053756;28;20036;-77
2022/08/04 10:50:36;;;;;;;8.25;4.13;;;;;;;29.33;39.99;92781.09;5052166;28;20330;-77
2022/08/04 10:53:09;;;;;;;8.60;4.45;;;;;;;29.21;39.40;92785.81;5052753;28;20041;-77
2022/08/04 10:55:40;;;;;;;6.97;4.10;;;;;;;29.22;39.34;92781.94;5035710;28;20483;-77
2022/08/04 10:58:12;;;;;;;6.80;3.93;;;;;;;29.30;38.96;92782.66;5019202;28;20082;-77
2022/08/04 11:00:40;;;;;;;6.78;4.30;;;;;;;29.32;38.28;92782.25;5033744;28;20036;-77
2022/08/04 11:03:41;;;;;;;7.60;4.18;;;;;;;29.53;39.44;92778.63;5053399;28;20048;-77
2022/08/04 11:06:08;;;;;;;6.68;4.10;;;;;;;29.52;37.87;92771.69;5049172;28;20069;-76
2022/08/04 11:08:46;;;;;;;5.32;3.90;;;;;;;29.56;37.90;92769.72;5050635;28;20037;-78
2022/08/04 11:11:25;;;;;;;9.40;4.38;;;;;;;29.44;37.29;92771.00;5044974;28;20517;-78
2022/08/04 11:13:57;;;;;;;8.25;4.38;;;;;;;29.44;38.01;92771.00;5028385;28;20052;-78
2022/08/04 11:16:26;;;;;;;;;;;;;;;29.41;37.59;92777.19;5043709;28;20041;-77
2022/08/04 11:19:14;;;;;;;9.23;5.10;;;;;;;29.69;36.27;92770.78;5036941;28;19920;-78
2022/08/04 11:21:46;;;;;;;7.80;4.63;;;;;;;29.49;37.33;92770.56;5049839;28;20089;-77
2022/08/04 11:24:24;;;;;;;8.52;4.45;;;;;;;29.62;37.16;92768.13;5054930;28;20040;-78
2022/08/04 11:26:57;;;;;;;6.18;4.70;;;;;;;29.40;37.99;92765.63;5054074;28;20040;-77
2022/08/04 11:29:39;;;;;;;7.32;4.20;;;;;;;29.66;37.50;92760.78;5043774;28;20390;-82
2022/08/04 11:32:16;;;;;;;8.52;4.63;;;;;;;29.71;38.24;92763.06;5028255;28;20034;-77
2022/08/04 11:34:48;;;;;;;7.47;3.80;;;;;;;29.65;37.19;92757.31;5033112;28;20124;-77
2022/08/04 11:37:26;;;;;;;7.15;4.40;;;;;;;29.79;37.38;92759.16;5033272;28;20224;-77
2022/08/04 11:39:59;;;;;;;5.97;4.35;;;;;;;29.79;37.37;92763.75;5038468;28;20044;-77
2022/08/04 11:42:26;;;;;;;8.43;4.47;;;;;;;29.74;37.67;92756.09;5035707;28;20120;-77
2022/08/04 11:45:04;;;;;;;7.70;4.57;;;;;;;29.66;39.16;92755.38;5051964;28;20048;-77
2022/08/04 11:47:53;;;;;;;10.52;4.30;;;;;;;29.59;39.00;92753.53;5028642;28;20487;-77
2022/08/04 11:50:34;;;;;;;5.60;4.13;;;;;;;29.80;38.37;92751.81;5012959;28;20114;-76
2022/08/04 11:53:01;;;;;;;7.28;4.35;;;;;;;29.90;35.97;92748.22;5052645;28;20503;-77
2022/08/04 11:55:29;;;;;;;8.48;4.47;;;;;;;29.90;37.37;92742.81;5052507;28;20033;-77
2022/08/04 11:57:55;;;;;;;7.82;4.28;;;;;;;30.19;36.41;92742.50;5034876;28;20522;-77
2022/08/04 12:00:26;;;;;;;6.95;4.30;;;;;;;29.86;36.82;92742.13;5034732;28;20526;-76
2022/08/04 12:03:14;;;;;;;9.05;4.85;;;;;;;30.00;37.39;92736.56;5024276;28;20033;-77
2022/08/04 12:06:09;;;;;;;8.43;4.47;;;;;;;29.95;36.99;92739.72;5034579;28;20036;-77
2022/08/04 12:09:32;;;;;;;8.55;4.25;;;;;;;29.97;37.82;92731.97;5052571;28;20032;-77
2022/08/04 12:12:24;;;;;;;9.27;4.72;;;;;;;30.16;37.83;92735.22;4952264;29;20054;-77
2022/08/04 12:14:59;;;;;;;7.80;5.03;;;;;;;30.11;37.24;92727.59;4935926;29;20523;-77
2022/08/04 12:17:34;;;;;;;9.07;5.20;;;;;;;30.08;37.41;92738.03;5002969;28;20131;-76
2022/08/04 12:20:06;;;;;;;11.05;5.05;;;;;;;30.27;37.18;92731.25;5035173;28;20041;-77
2022/08/04 12:22:42;;;;;;;6.22;4.65;;;;;;;30.00;36.83;92730.41;5035136;28;20453;-77